Time;durP1;ratioP1;P1;durP2;ratioP2;P2;SDS_P1;SDS_P2;PMS_P1;PMS_P2;Temp;Humidity;BMP_temperature;BMP_pressure;BME280_temperature;BME280_humidity;BME280_pressure;Samples;Min_cycle;Max_cycle;Signal;HPM_P1;HPM_P2
2021/04/22 00:00:13;;;;;;;24.15;4.20;;;9.90;60.20;;;;;;5070307;28;20202;-73
2021/04/22 00:02:40;;;;;;;19.95;3.80;;;9.90;60.50;;;;;;5070483;28;20551;-73
2021/04/22 00:05:11;;;;;;;21.90;4.15;;;9.80;60.60;;;;;;5073925;28;20214;-72
2021/04/22 00:07:38;;;;;;;23.52;4.43;;;9.80;60.70;;;;;;5073875;28;20208;-73
2021/04/22 00:10:09;;;;;;;32.22;5.65;;;9.80;60.90;;;;;;5068783;28;20198;-74
2021/04/22 00:12:35;;;;;;;27.52;5.93;;;9.80;60.90;;;;;;5075549;28;20662;-76
2021/04/22 00:15:05;;;;;;;32.42;6.18;;;9.80;61.00;;;;;;5071516;28;20222;-75
2021/04/22 00:17:31;;;;;;;33.42;6.75;;;9.80;61.10;;;;;;5073879;28;20213;-76
2021/04/22 00:19:58;;;;;;;26.25;5.65;;;9.70;61.10;;;;;;5071444;28;20212;-74
2021/04/22 00:22:24;;;;;;;25.50;5.38;;;9.70;61.40;;;;;;5077104;28;20207;-75
2021/04/22 00:24:50;;;;;;;25.02;5.00;;;9.70;61.60;;;;;;5075713;28;20197;-74
2021/04/22 00:27:17;;;;;;;24.35;4.43;;;9.70;61.80;;;;;;5076824;28;20251;-74
2021/04/22 00:29:43;;;;;;;19.05;4.15;;;9.70;61.80;;;;;;5071518;28;20214;-74
2021/04/22 00:32:10;;;;;;;17.45;3.90;;;9.70;61.70;;;;;;5071049;28;20231;-75
2021/04/22 00:34:37;;;;;;;16.95;4.03;;;9.70;61.60;;;;;;5067895;28;20210;-74
2021/04/22 00:37:03;;;;;;;15.02;3.83;;;9.70;61.50;;;;;;5071497;28;20214;-75
2021/04/22 00:39:29;;;;;;;18.88;4.28;;;9.70;62.40;;;;;;5076033;28;20670;-75
2021/04/22 00:41:56;;;;;;;22.65;4.40;;;9.70;61.60;;;;;;5070947;28;20240;-74
2021/04/22 00:44:22;;;;;;;20.60;4.20;;;9.70;61.60;;;;;;5070758;28;20197;-75
2021/04/22 00:46:49;;;;;;;24.77;4.22;;;9.70;61.70;;;;;;5072249;28;20214;-74
2021/04/22 00:49:17;;;;;;;22.90;4.63;;;9.60;61.60;;;;;;5079349;28;20665;-75
2021/04/22 00:51:44;;;;;;;17.55;4.85;;;9.60;61.80;;;;;;5071170;28;20206;-74
2021/04/22 00:54:10;;;;;;;23.10;4.78;;;9.60;62.70;;;;;;5072846;28;20213;-74
2021/04/22 00:56:37;;;;;;;32.88;5.43;;;9.50;62.10;;;;;;5067638;28;20626;-75
2021/04/22 00:59:04;;;;;;;23.77;5.00;;;9.50;62.20;;;;;;5073946;28;20563;-74
2021/04/22 01:01:31;;;;;;;27.80;5.43;;;9.50;62.40;;;;;;5072360;28;20259;-75
2021/04/22 01:03:58;;;;;;;23.63;5.05;;;9.40;63.10;;;;;;5075709;28;20198;-74
2021/04/22 01:06:25;;;;;;;23.80;4.60;;;9.40;62.60;;;;;;5079180;28;20213;-73
2021/04/22 01:08:51;;;;;;;17.08;4.25;;;9.40;62.70;;;;;;5075204;28;20595;-73
2021/04/22 01:11:18;;;;;;;22.27;3.78;;;9.40;62.80;;;;;;5076851;28;20198;-74
2021/04/22 01:13:44;;;;;;;14.82;3.55;;;9.40;62.90;;;;;;5074458;28;20202;-73
2021/04/22 01:16:10;;;;;;;17.08;3.92;;;9.40;62.90;;;;;;5079484;28;20203;-73
2021/04/22 01:18:37;;;;;;;21.73;3.80;;;9.40;63.00;;;;;;5072991;28;20213;-74
2021/04/22 01:21:04;;;;;;;20.33;4.25;;;9.30;63.00;;;;;;5079130;28;20206;-74
2021/04/22 01:23:31;;;;;;;15.10;3.88;;;9.30;63.00;;;;;;5079786;28;20225;-74
2021/04/22 01:25:57;;;;;;;19.33;4.13;;;9.30;63.00;;;;;;5076203;28;20225;-74
2021/04/22 01:28:26;;;;;;;19.25;4.40;;;9.30;63.00;;;;;;5073886;28;20582;-73
2021/04/22 01:30:54;;;;;;;24.83;5.28;;;9.30;63.10;;;;;;5072629;28;20206;-73
2021/04/22 01:33:23;;;;;;;23.17;5.20;;;9.30;63.20;;;;;;5073507;28;20202;-74
2021/04/22 01:35:52;;;;;;;27.08;5.15;;;9.30;63.20;;;;;;5075918;28;20195;-73
2021/04/22 01:38:19;;;;;;;25.85;5.25;;;9.20;63.20;;;;;;5078491;28;20191;-74
2021/04/22 01:40:48;;;;;;;24.85;4.18;;;9.20;63.30;;;;;;5071750;28;20203;-74
2021/04/22 01:43:14;;;;;;;18.17;4.18;;;9.20;63.50;;;;;;5074113;28;20218;-73
2021/04/22 01:45:41;;;;;;;16.73;4.10;;;9.20;63.60;;;;;;5075361;28;20267;-74
2021/04/22 01:48:08;;;;;;;10.57;3.05;;;9.20;63.70;;;;;;5081107;28;20259;-74
2021/04/22 01:50:36;;;;;;;22.50;4.05;;;9.20;63.80;;;;;;5077180;28;20626;-73
2021/04/22 01:53:03;;;;;;;15.60;3.90;;;9.20;63.90;;;;;;5082256;28;20209;-72
2021/04/22 01:55:33;;;;;;;19.73;4.25;;;9.20;64.00;;;;;;5071737;28;20559;-73
2021/04/22 01:58:00;;;;;;;16.52;3.60;;;9.20;64.00;;;;;;5077749;28;20209;-72
2021/04/22 02:00:28;;;;;;;21.10;4.20;;;9.20;64.10;;;;;;5073791;28;20435;-73
2021/04/22 02:02:55;;;;;;;18.77;3.58;;;9.50;65.20;;;;;;5081829;28;20201;-73
2021/04/22 02:05:21;;;;;;;24.17;3.67;;;9.40;64.70;;;;;;5076228;28;20301;-73
2021/04/22 02:07:48;;;;;;;11.35;3.17;;;9.30;64.80;;;;;;5076945;28;20268;-74
2021/04/22 02:10:15;;;;;;;19.95;3.85;;;9.30;64.80;;;;;;5076851;28;20213;-74
2021/04/22 02:12:41;;;;;;;15.55;3.30;;;9.20;64.80;;;;;;5083628;28;20663;-74
2021/04/22 02:15:12;;;;;;;20.33;3.97;;;9.20;64.80;;;;;;5077775;28;20550;-74
2021/04/22 02:17:38;;;;;;;19.92;3.58;;;9.20;64.70;;;;;;5071246;28;20205;-72
2021/04/22 02:20:07;;;;;;;17.40;3.45;;;9.20;64.60;;;;;;5075845;28;20194;-72
2021/04/22 02:22:33;;;;;;;17.95;3.42;;;9.20;64.60;;;;;;5069603;28;20215;-74
2021/04/22 02:25:00;;;;;;;16.48;3.25;;;9.20;64.70;;;;;;5071339;28;20611;-74
2021/04/22 02:27:26;;;;;;;15.65;3.42;;;9.20;64.70;;;;;;5071308;28;20659;-73
2021/04/22 02:29:52;;;;;;;20.20;3.40;;;9.20;64.70;;;;;;5072969;28;20227;-74
2021/04/22 02:32:20;;;;;;;16.48;3.47;;;9.10;64.70;;;;;;5075781;28;20216;-73
2021/04/22 02:34:46;;;;;;;16.45;3.83;;;9.10;64.80;;;;;;5070885;28;20674;-74
2021/04/22 02:37:12;;;;;;;18.70;4.32;;;9.10;64.90;;;;;;5075821;28;20654;-74
2021/04/22 02:39:39;;;;;;;18.83;3.88;;;9.10;65.00;;;;;;5069355;28;20284;-74
2021/04/22 02:42:06;;;;;;;22.85;3.35;;;9.00;65.00;;;;;;5076314;28;20210;-74
2021/04/22 02:44:32;;;;;;;27.00;4.18;;;9.00;65.10;;;;;;5071464;28;20302;-73
2021/04/22 02:46:59;;;;;;;24.88;4.00;;;9.00;65.20;;;;;;5076594;28;20217;-74
2021/04/22 02:49:26;;;;;;;23.38;4.13;;;8.90;65.30;;;;;;5069255;28;20646;-74
2021/04/22 02:51:52;;;;;;;18.88;4.63;;;8.90;65.30;;;;;;5080813;28;20260;-73
2021/04/22 02:54:19;;;;;;;20.45;4.03;;;8.90;65.50;;;;;;5076836;28;20284;-73
2021/04/22 02:56:46;;;;;;;16.25;3.97;;;8.90;65.70;;;;;;5076631;28;20210;-74
2021/04/22 02:59:12;;;;;;;17.60;3.50;;;8.80;65.70;;;;;;5073199;28;20202;-74
2021/04/22 03:01:38;;;;;;;24.05;4.18;;;8.80;65.80;;;;;;5074976;28;20657;-72
2021/04/22 03:04:05;;;;;;;17.10;3.72;;;8.80;66.00;;;;;;5070958;28;20202;-73
2021/04/22 03:06:33;;;;;;;21.58;4.05;;;8.70;66.10;;;;;;5072704;28;20271;-74
2021/04/22 03:08:59;;;;;;;24.42;4.05;;;8.70;66.20;;;;;;5074250;28;20211;-74
2021/04/22 03:11:25;;;;;;;27.48;4.10;;;8.70;66.30;;;;;;5074051;28;20281;-74
2021/04/22 03:13:52;;;;;;;24.35;4.72;;;8.70;66.30;;;;;;5067951;28;20223;-73
2021/04/22 03:16:18;;;;;;;22.70;4.65;;;8.60;66.40;;;;;;5074722;28;20240;-73
2021/04/22 03:18:44;;;;;;;21.35;4.25;;;8.70;66.60;;;;;;5068529;28;20293;-73
2021/04/22 03:21:11;;;;;;;23.52;3.58;;;8.60;66.60;;;;;;5071364;28;20604;-73
2021/04/22 03:23:38;;;;;;;20.65;3.45;;;8.60;66.70;;;;;;5074336;28;20197;-74
2021/04/22 03:26:04;;;;;;;24.70;4.05;;;8.60;66.80;;;;;;5068467;28;20689;-73
2021/04/22 03:28:31;;;;;;;22.90;3.70;;;8.60;66.80;;;;;;5082424;28;20201;-74
2021/04/22 03:30:57;;;;;;;17.45;3.10;;;8.60;66.90;;;;;;5069964;28;20206;-74
2021/04/22 03:33:24;;;;;;;13.23;2.97;;;8.50;66.90;;;;;;5071449;28;20237;-74
2021/04/22 03:35:51;;;;;;;19.50;3.15;;;8.60;67.10;;;;;;5068199;28;20198;-74
2021/04/22 03:38:17;;;;;;;23.25;3.63;;;8.50;67.10;;;;;;5068607;28;20651;-74
2021/04/22 03:40:45;;;;;;;18.83;3.13;;;8.50;67.20;;;;;;5072144;28;20201;-74
2021/04/22 03:43:11;;;;;;;17.83;3.13;;;8.50;67.30;;;;;;5074578;28;20199;-73
2021/04/22 03:45:38;;;;;;;16.30;2.83;;;8.50;67.40;;;;;;5068310;28;20217;-74
2021/04/22 03:48:05;;;;;;;17.33;2.90;;;8.50;67.50;;;;;;5078340;28;20659;-73
2021/04/22 03:50:31;;;;;;;14.27;3.00;;;8.50;67.60;;;;;;5070937;28;20198;-73
2021/04/22 03:52:58;;;;;;;17.23;3.42;;;8.50;67.70;;;;;;5074502;28;20198;-73
2021/04/22 03:55:24;;;;;;;24.85;3.58;;;8.50;67.70;;;;;;5070462;28;20267;-74
2021/04/22 03:57:51;;;;;;;13.07;2.83;;;8.50;67.80;;;;;;5082045;28;20661;-73
2021/04/22 04:00:21;;;;;;;14.60;3.28;;;8.50;67.80;;;;;;5069910;28;20206;-74
2021/04/22 04:02:47;;;;;;;12.98;2.70;;;8.50;67.90;;;;;;5079231;28;20202;-74
2021/04/22 04:05:14;;;;;;;19.25;3.58;;;8.50;68.00;;;;;;5072930;28;20232;-73
2021/04/22 04:07:40;;;;;;;19.15;3.17;;;8.50;68.00;;;;;;5080272;28;20206;-74
2021/04/22 04:10:09;;;;;;;16.55;3.25;;;8.50;68.00;;;;;;5068916;28;20209;-74
2021/04/22 04:12:35;;;;;;;18.15;3.15;;;8.50;68.00;;;;;;5075553;28;20198;-74
2021/04/22 04:15:04;;;;;;;16.67;2.78;;;8.50;68.10;;;;;;5072207;28;20281;-73
2021/04/22 04:17:30;;;;;;;17.92;3.17;;;8.50;68.20;;;;;;5077986;28;20222;-73
2021/04/22 04:19:56;;;;;;;19.05;3.80;;;8.50;68.20;;;;;;5077512;28;21531;-73
2021/04/22 04:22:23;;;;;;;20.10;3.65;;;8.50;68.20;;;;;;5075030;28;20670;-74
2021/04/22 04:24:49;;;;;;;17.58;3.53;;;8.60;68.30;;;;;;5071753;28;20264;-74
2021/04/22 04:27:16;;;;;;;25.65;3.58;;;8.60;68.30;;;;;;5065671;28;20214;-75
2021/04/22 04:29:42;;;;;;;11.73;2.72;;;8.60;68.30;;;;;;5077593;28;20210;-74
2021/04/22 04:32:09;;;;;;;20.13;3.13;;;8.60;68.20;;;;;;5069243;28;20198;-74
2021/04/22 04:34:35;;;;;;;20.85;2.95;;;8.60;68.10;;;;;;5067549;28;20277;-75
2021/04/22 04:37:03;;;;;;;13.95;2.40;;;8.60;68.00;;;;;;5071642;28;20625;-74
2021/04/22 04:39:30;;;;;;;23.00;3.40;;;8.60;68.00;;;;;;5074613;28;20225;-74
2021/04/22 04:41:57;;;;;;;15.80;3.08;;;8.60;68.00;;;;;;5075839;28;20213;-75
2021/04/22 04:44:23;;;;;;;18.50;3.03;;;8.60;68.10;;;;;;5078007;28;20208;-74
2021/04/22 04:46:50;;;;;;;26.67;3.10;;;8.60;68.20;;;;;;5066675;28;20215;-74
2021/04/22 04:49:17;;;;;;;16.50;2.72;;;8.60;68.20;;;;;;5071786;28;20220;-74
2021/04/22 04:51:43;;;;;;;15.18;3.00;;;8.60;68.20;;;;;;5076643;28;20551;-74
2021/04/22 04:54:10;;;;;;;11.95;2.70;;;8.60;68.30;;;;;;5072586;28;20206;-74
2021/04/22 04:56:36;;;;;;;16.38;3.42;;;8.60;68.30;;;;;;5073662;28;20205;-75
2021/04/22 04:59:04;;;;;;;13.93;2.90;;;8.60;68.40;;;;;;5076343;28;20194;-74
2021/04/22 05:01:30;;;;;;;13.75;2.70;;;8.60;68.50;;;;;;5073467;28;20214;-76
2021/04/22 05:03:56;;;;;;;18.83;2.97;;;8.60;68.60;;;;;;5069802;28;20564;-75
2021/04/22 05:06:24;;;;;;;16.95;3.17;;;8.60;68.60;;;;;;5072376;28;20333;-75
2021/04/22 05:08:50;;;;;;;22.58;2.95;;;8.60;68.70;;;;;;5069234;28;20203;-75
2021/04/22 05:11:17;;;;;;;14.43;2.95;;;8.60;68.60;;;;;;5072091;28;20214;-74
2021/04/22 05:13:43;;;;;;;18.92;2.65;;;8.70;68.70;;;;;;5070247;28;20202;-74
2021/04/22 05:16:10;;;;;;;14.25;2.33;;;8.70;68.50;;;;;;5072901;28;20578;-74
2021/04/22 05:18:36;;;;;;;19.10;2.55;;;8.70;68.40;;;;;;5072731;28;20545;-75
2021/04/22 05:21:03;;;;;;;16.67;2.83;;;8.80;68.40;;;;;;5077335;28;20198;-75
2021/04/22 05:23:30;;;;;;;13.82;2.33;;;8.80;68.20;;;;;;5072862;28;20197;-74
2021/04/22 05:25:56;;;;;;;13.77;3.05;;;8.90;68.20;;;;;;5076103;28;20267;-75
2021/04/22 05:28:23;;;;;;;14.38;2.80;;;8.90;68.20;;;;;;5074818;28;21502;-77
2021/04/22 05:30:49;;;;;;;13.85;2.50;;;8.90;68.10;;;;;;5071992;28;20286;-74
2021/04/22 05:33:16;;;;;;;15.77;2.40;;;9.00;68.10;;;;;;5078596;28;20206;-75
2021/04/22 05:35:43;;;;;;;9.98;2.92;;;9.00;67.80;;;;;;5070221;28;20203;-74
2021/04/22 05:38:11;;;;;;;9.85;2.53;;;9.00;67.80;;;;;;5077421;28;20201;-76
2021/04/22 05:40:38;;;;;;;12.00;2.60;;;9.00;67.80;;;;;;5070030;28;20213;-75
2021/04/22 05:43:07;;;;;;;21.52;3.80;;;9.10;67.80;;;;;;5070912;28;20492;-76
2021/04/22 05:45:33;;;;;;;20.30;3.55;;;9.40;67.50;;;;;;5067666;28;21362;-77
2021/04/22 05:48:00;;;;;;;15.87;3.30;;;9.70;66.20;;;;;;5071596;28;20423;-76
2021/04/22 05:50:26;;;;;;;16.05;3.00;;;10.00;65.30;;;;;;5070582;28;20435;-77
2021/04/22 05:52:53;;;;;;;17.80;3.10;;;10.10;64.50;;;;;;5078028;28;20423;-74
2021/04/22 05:55:20;;;;;;;13.98;3.05;;;10.30;63.60;;;;;;5075510;28;20425;-75
2021/04/22 05:57:47;;;;;;;13.98;3.08;;;10.40;62.80;;;;;;5080640;28;20877;-71
2021/04/22 06:00:17;;;;;;;17.67;2.95;;;10.40;62.30;;;;;;5078196;28;20422;-75
2021/04/22 06:02:43;;;;;;;17.33;3.05;;;10.50;62.20;;;;;;5072206;28;20436;-72
2021/04/22 06:05:11;;;;;;;14.88;2.63;;;10.60;61.60;;;;;;5079296;28;20205;-75
2021/04/22 06:07:37;;;;;;;10.52;2.60;;;10.30;62.70;;;;;;5084244;28;20214;-74
2021/04/22 06:10:05;;;;;;;16.63;2.97;;;10.10;63.50;;;;;;5080872;28;20608;-73
2021/04/22 06:12:31;;;;;;;18.38;2.83;;;10.00;64.00;;;;;;5085248;28;20212;-76
2021/04/22 06:14:59;;;;;;;14.88;2.78;;;9.90;64.30;;;;;;5078629;28;20584;-75
2021/04/22 06:17:25;;;;;;;20.00;3.65;;;9.80;64.60;;;;;;5079612;28;20195;-74
2021/04/22 06:19:52;;;;;;;14.93;2.90;;;9.70;64.70;;;;;;5088649;28;20198;-75
2021/04/22 06:22:18;;;;;;;14.05;3.00;;;9.70;64.80;;;;;;5087064;28;20194;-73
2021/04/22 06:24:45;;;;;;;19.30;3.35;;;9.70;64.90;;;;;;5075316;28;20256;-74
2021/04/22 06:27:12;;;;;;;21.08;3.10;;;9.70;64.90;;;;;;5070771;28;20219;-73
2021/04/22 06:29:38;;;;;;;19.98;3.53;;;9.70;64.80;;;;;;5074103;28;20204;-73
2021/04/22 06:32:07;;;;;;;20.38;3.30;;;9.70;64.90;;;;;;5079679;28;20592;-73
2021/04/22 06:34:33;;;;;;;15.18;2.95;;;9.70;64.90;;;;;;5077385;28;20200;-73
2021/04/22 06:37:00;;;;;;;13.60;2.70;;;9.70;65.00;;;;;;5088540;28;20198;-75
2021/04/22 06:39:26;;;;;;;14.52;2.85;;;9.80;65.10;;;;;;5073920;28;20210;-74
2021/04/22 06:41:53;;;;;;;16.05;2.60;;;9.80;65.10;;;;;;5078843;28;20231;-74
2021/04/22 06:44:20;;;;;;;17.90;3.42;;;9.80;64.90;;;;;;5077290;28;20218;-74
2021/04/22 06:46:46;;;;;;;16.52;2.38;;;9.80;64.60;;;;;;5082069;28;20229;-74
2021/04/22 06:49:14;;;;;;;10.30;2.90;;;9.80;64.30;;;;;;5091751;28;20235;-73
2021/04/22 06:51:40;;;;;;;11.32;2.30;;;9.80;64.30;;;;;;5076157;28;20259;-76
2021/04/22 06:54:07;;;;;;;13.07;2.88;;;9.80;64.10;;;;;;5075899;28;20431;-77
2021/04/22 06:56:33;;;;;;;17.30;3.30;;;10.10;63.30;;;;;;5075633;28;20410;-75
2021/04/22 06:59:00;;;;;;;12.85;2.50;;;10.40;62.00;;;;;;5079338;28;20443;-76
2021/04/22 07:01:27;;;;;;;14.05;2.83;;;10.60;61.40;;;;;;5080844;28;20418;-77
2021/04/22 07:03:53;;;;;;;12.93;2.60;;;10.70;60.90;;;;;;5074021;28;20421;-75
2021/04/22 07:06:21;;;;;;;14.80;2.80;;;10.80;60.00;;;;;;5081364;28;20426;-76
2021/04/22 07:08:48;;;;;;;16.35;2.70;;;10.80;59.40;;;;;;5077946;28;20422;-74
2021/04/22 07:11:14;;;;;;;14.90;2.93;;;10.90;59.10;;;;;;5075087;28;20426;-75
2021/04/22 07:13:40;;;;;;;17.55;4.20;;;10.90;58.60;;;;;;5073479;28;20974;-74
2021/04/22 07:16:07;;;;;;;10.70;2.47;;;11.00;58.30;;;;;;5080185;28;20486;-75
2021/04/22 07:18:33;;;;;;;14.02;3.03;;;11.00;58.10;;;;;;5073068;28;20420;-74
2021/04/22 07:21:00;;;;;;;15.60;3.08;;;11.00;58.30;;;;;;5079257;28;20975;-74
2021/04/22 07:23:28;;;;;;;18.17;2.95;;;11.10;58.40;;;;;;5080533;28;20772;-74
2021/04/22 07:25:55;;;;;;;12.40;2.60;;;11.10;58.30;;;;;;5069610;28;20430;-74
2021/04/22 07:28:22;;;;;;;12.73;2.70;;;11.20;58.30;;;;;;5073451;28;20427;-81
2021/04/22 07:30:48;;;;;;;13.97;2.53;;;11.20;57.90;;;;;;5077905;28;20413;-78
2021/04/22 07:33:15;;;;;;;12.75;2.53;;;11.20;57.80;;;;;;5075351;28;20883;-78
2021/04/22 07:35:42;;;;;;;13.68;2.95;;;11.30;58.00;;;;;;5077440;28;20409;-76
2021/04/22 07:38:10;;;;;;;12.02;2.53;;;11.40;58.30;;;;;;5081136;28;20411;-75
2021/04/22 07:40:38;;;;;;;12.45;3.00;;;11.40;58.20;;;;;;5071018;28;20850;-77
2021/04/22 07:43:05;;;;;;;11.82;2.60;;;11.50;57.90;;;;;;5060885;28;20521;-76
2021/04/22 07:45:34;;;;;;;12.65;2.80;;;11.50;57.90;;;;;;5062992;28;20926;-80
2021/04/22 07:48:02;;;;;;;11.00;2.50;;;11.50;57.90;;;;;;5071937;28;20836;-74
2021/04/22 07:50:29;;;;;;;13.87;2.60;;;11.60;58.00;;;;;;5069643;28;21055;-75
2021/04/22 07:52:55;;;;;;;12.02;2.60;;;11.60;57.90;;;;;;5067425;28;20439;-73
2021/04/22 07:55:26;;;;;;;14.48;2.70;;;11.60;57.80;;;;;;5072815;28;20435;-75
2021/04/22 07:57:53;;;;;;;12.93;2.58;;;11.70;57.40;;;;;;5068254;28;20431;-75
2021/04/22 08:00:21;;;;;;;12.50;2.45;;;11.70;56.40;;;;;;5067536;28;20202;-75
2021/04/22 08:02:48;;;;;;;8.82;2.50;;;11.40;57.50;;;;;;5073675;28;20423;-75
2021/04/22 08:05:16;;;;;;;16.75;2.38;;;11.20;58.20;;;;;;5065955;28;20198;-74
2021/04/22 08:07:43;;;;;;;15.63;2.70;;;11.10;58.60;;;;;;5070185;28;20226;-75
2021/04/22 08:10:11;;;;;;;11.30;2.35;;;11.00;58.90;;;;;;5071754;28;20202;-74
2021/04/22 08:12:38;;;;;;;12.63;2.70;;;10.90;58.80;;;;;;5071890;28;20202;-73
2021/04/22 08:15:09;;;;;;;8.95;2.30;;;10.90;58.90;;;;;;5067998;28;20257;-74
2021/04/22 08:17:35;;;;;;;11.93;2.00;;;10.90;59.00;;;;;;5070676;28;20639;-74
2021/04/22 08:20:05;;;;;;;9.25;2.78;;;10.80;58.90;;;;;;5074505;28;20198;-74
2021/04/22 08:22:32;;;;;;;12.18;2.65;;;10.80;59.00;;;;;;5079926;28;20650;-74
2021/04/22 08:24:58;;;;;;;8.43;2.28;;;10.90;59.10;;;;;;5068209;28;20190;-75
2021/04/22 08:27:25;;;;;;;14.80;2.47;;;10.90;59.20;;;;;;5067881;28;20239;-73
2021/04/22 08:29:52;;;;;;;14.65;2.70;;;10.90;59.20;;;;;;5070514;28;20206;-74
2021/04/22 08:32:19;;;;;;;14.48;2.88;;;10.90;59.20;;;;;;5079615;28;20226;-73
2021/04/22 08:34:45;;;;;;;9.95;2.58;;;10.90;59.40;;;;;;5066317;28;20206;-74
2021/04/22 08:37:12;;;;;;;12.15;2.85;;;11.00;59.40;;;;;;5074214;28;20788;-73
2021/04/22 08:39:38;;;;;;;12.43;2.20;;;11.00;59.40;;;;;;5069799;28;20202;-74
2021/04/22 08:42:06;;;;;;;13.30;2.35;;;11.10;59.40;;;;;;5069314;28;20753;-73
2021/04/22 08:44:32;;;;;;;11.63;2.70;;;11.10;59.40;;;;;;5069076;28;20210;-75
2021/04/22 08:47:00;;;;;;;18.17;2.90;;;11.10;59.30;;;;;;5075506;28;20222;-75
2021/04/22 08:49:28;;;;;;;15.38;3.33;;;11.20;59.40;;;;;;5075996;28;20277;-75
2021/04/22 08:51:55;;;;;;;10.35;2.72;;;11.20;59.30;;;;;;5073232;28;21097;-74
2021/04/22 08:54:22;;;;;;;11.18;2.17;;;11.30;58.90;;;;;;5068700;28;20204;-74
2021/04/22 08:56:48;;;;;;;10.10;2.40;;;11.30;58.70;;;;;;5073482;28;20206;-75
2021/04/22 08:59:15;;;;;;;16.42;2.53;;;11.40;58.60;;;;;;5069911;28;20582;-75
2021/04/22 09:01:42;;;;;;;10.38;2.90;;;11.40;58.30;;;;;;5070508;28;20201;-76
2021/04/22 09:04:08;;;;;;;12.23;3.05;;;11.40;58.30;;;;;;5074908;28;20573;-73
2021/04/22 09:06:37;;;;;;;13.10;2.85;;;11.40;58.00;;;;;;5067740;28;20228;-74
2021/04/22 09:09:05;;;;;;;9.13;2.92;;;11.40;57.80;;;;;;5073795;28;20221;-73
2021/04/22 09:11:39;;;;;;;14.35;2.60;;;11.40;57.70;;;;;;5067748;28;20202;-75
2021/04/22 09:14:11;;;;;;;10.15;2.58;;;11.40;57.80;;;;;;5066130;28;20189;-74
2021/04/22 09:16:37;;;;;;;10.40;2.78;;;11.40;58.00;;;;;;5068691;28;20191;-74
2021/04/22 09:19:07;;;;;;;11.10;2.70;;;11.40;58.20;;;;;;5068195;28;20216;-74
2021/04/22 09:21:38;;;;;;;9.15;1.95;;;11.50;58.50;;;;;;5067921;28;20285;-74
2021/04/22 09:24:08;;;;;;;14.73;2.85;;;11.50;58.60;;;;;;5067028;28;20663;-75
2021/04/22 09:26:48;;;;;;;14.88;2.50;;;11.60;58.70;;;;;;5075057;28;20213;-73
2021/04/22 09:29:29;;;;;;;11.60;2.67;;;11.70;58.50;;;;;;5069588;28;20264;-79
2021/04/22 09:32:07;;;;;;;9.20;2.53;;;11.80;58.40;;;;;;5075351;28;20202;-76
2021/04/22 09:34:33;;;;;;;11.63;2.50;;;11.90;58.40;;;;;;5075536;28;20218;-75
2021/04/22 09:37:00;;;;;;;8.55;2.40;;;12.10;58.40;;;;;;5074818;28;20217;-74
2021/04/22 09:39:31;;;;;;;15.15;2.80;;;12.20;58.40;;;;;;5071892;28;20205;-76
2021/04/22 09:42:00;;;;;;;12.35;2.80;;;12.30;58.20;;;;;;5072835;28;20202;-78
2021/04/22 09:44:27;;;;;;;12.80;3.03;;;12.30;57.80;;;;;;5071181;28;20643;-75
2021/04/22 09:47:06;;;;;;;15.05;2.83;;;12.40;57.60;;;;;;5072895;28;20214;-74
2021/04/22 09:49:32;;;;;;;15.60;2.75;;;12.40;57.40;;;;;;5066521;28;20202;-75
2021/04/22 09:52:07;;;;;;;10.20;2.60;;;12.40;57.30;;;;;;5075469;28;20205;-76
2021/04/22 09:54:42;;;;;;;9.60;2.60;;;12.40;57.10;;;;;;5076049;28;20316;-76
2021/04/22 09:57:19;;;;;;;17.98;3.17;;;12.50;57.00;;;;;;5074647;28;20258;-74
2021/04/22 09:59:45;;;;;;;9.15;2.30;;;12.50;56.70;;;;;;5071088;28;20900;-73
2021/04/22 10:02:12;;;;;;;11.63;2.33;;;12.60;56.70;;;;;;5068947;28;20198;-73
2021/04/22 10:04:41;;;;;;;8.27;2.17;;;12.70;56.70;;;;;;5064350;28;21224;-74
2021/04/22 10:07:21;;;;;;;11.35;2.25;;;12.70;57.40;;;;;;5072713;28;20218;-73
2021/04/22 10:09:48;;;;;;;11.35;2.42;;;12.90;56.50;;;;;;5071275;28;20283;-73
2021/04/22 10:12:23;;;;;;;10.05;2.97;;;13.00;56.10;;;;;;5070280;28;20544;-74
2021/04/22 10:14:50;;;;;;;14.95;2.75;;;13.10;55.70;;;;;;5083964;28;20321;-75
2021/04/22 10:17:17;;;;;;;13.73;3.47;;;13.10;55.60;;;;;;5074497;28;20202;-74
2021/04/22 10:19:57;;;;;;;12.13;3.00;;;13.20;55.50;;;;;;5072660;28;20228;-74
2021/04/22 10:22:30;;;;;;;12.05;2.70;;;13.20;55.40;;;;;;5077814;28;20293;-74
2021/04/22 10:24:57;;;;;;;16.00;3.08;;;13.20;55.40;;;;;;5073526;28;20198;-73
2021/04/22 10:27:25;;;;;;;12.50;2.08;;;13.20;55.40;;;;;;5069178;28;20222;-75
2021/04/22 10:29:52;;;;;;;7.40;2.03;;;13.20;55.30;;;;;;5072381;28;20685;-75
2021/04/22 10:32:20;;;;;;;12.73;2.40;;;13.20;55.40;;;;;;5072621;28;20651;-77
2021/04/22 10:34:47;;;;;;;9.77;2.65;;;13.20;55.20;;;;;;5077065;28;20233;-76
2021/04/22 10:37:14;;;;;;;9.40;2.28;;;13.20;55.20;;;;;;5070993;28;20199;-76
2021/04/22 10:39:42;;;;;;;8.60;2.17;;;13.30;55.10;;;;;;5072843;28;20324;-79
2021/04/22 10:42:09;;;;;;;8.95;2.28;;;13.40;54.80;;;;;;5075907;28;20206;-75
2021/04/22 10:44:38;;;;;;;10.10;1.92;;;13.50;54.60;;;;;;5070581;28;20211;-75
2021/04/22 10:47:05;;;;;;;10.00;2.30;;;13.50;54.30;;;;;;5073731;28;20289;-75
2021/04/22 10:49:31;;;;;;;8.50;2.05;;;13.60;54.00;;;;;;5073891;28;20689;-76
2021/04/22 10:51:58;;;;;;;10.15;2.55;;;13.60;53.70;;;;;;5075215;28;20214;-75
2021/04/22 10:54:25;;;;;;;9.18;2.58;;;13.70;53.60;;;;;;5080953;28;20194;-78
2021/04/22 10:57:03;;;;;;;11.38;2.10;;;13.70;53.30;;;;;;5080587;28;20198;-77
2021/04/22 10:59:30;;;;;;;10.43;2.20;;;13.80;53.10;;;;;;5070210;28;20206;-74
2021/04/22 11:01:56;;;;;;;17.30;2.25;;;13.90;53.00;;;;;;5082363;28;20272;-77
2021/04/22 11:04:22;;;;;;;7.88;2.08;;;13.80;52.70;;;;;;5074279;28;20209;-76
2021/04/22 11:06:49;;;;;;;12.07;2.20;;;13.70;52.60;;;;;;5081885;28;20214;-76
2021/04/22 11:09:21;;;;;;;11.13;2.13;;;13.70;53.00;;;;;;5073802;28;20205;-78
2021/04/22 11:11:59;;;;;;;10.43;2.22;;;13.60;53.20;;;;;;5077730;28;20276;-77
2021/04/22 11:14:42;;;;;;;13.10;2.63;;;13.60;53.50;;;;;;5088011;28;20198;-78
2021/04/22 11:17:10;;;;;;;13.75;2.38;;;13.60;53.70;;;;;;5075939;28;23211;-77
2021/04/22 11:19:40;;;;;;;12.88;2.20;;;13.60;54.00;;;;;;5070988;28;20198;-77
2021/04/22 11:22:12;;;;;;;14.30;2.60;;;13.60;54.00;;;;;;5073218;28;20212;-77
2021/04/22 11:24:42;;;;;;;6.85;2.05;;;13.50;54.10;;;;;;5071728;28;20206;-77
2021/04/22 11:27:11;;;;;;;12.32;2.45;;;13.60;54.50;;;;;;5076491;28;20218;-76
2021/04/22 11:29:41;;;;;;;12.18;2.28;;;13.70;54.60;;;;;;5073011;28;20662;-76
2021/04/22 11:32:26;;;;;;;11.85;2.05;;;13.70;54.80;;;;;;5075108;28;20213;-77
2021/04/22 11:34:55;;;;;;;7.78;1.70;;;13.90;55.00;;;;;;5073669;28;20209;-76
2021/04/22 11:37:24;;;;;;;7.82;1.90;;;14.00;55.00;;;;;;5077093;28;20206;-76
2021/04/22 11:39:51;;;;;;;13.57;2.47;;;14.00;54.80;;;;;;5075617;28;20209;-75
2021/04/22 11:42:19;;;;;;;9.55;2.10;;;14.10;54.90;;;;;;5070329;28;20932;-76
2021/04/22 11:44:49;;;;;;;12.15;2.30;;;14.40;54.00;;;;;;5068053;28;20423;-77
2021/04/22 11:47:21;;;;;;;9.85;2.20;;;14.70;53.30;;;;;;5068498;28;20477;-77
2021/04/22 11:49:50;;;;;;;11.40;2.10;;;14.90;52.60;;;;;;5077393;28;20914;-76
2021/04/22 11:52:21;;;;;;;8.23;2.00;;;15.10;51.90;;;;;;5077451;28;20422;-77
2021/04/22 11:54:48;;;;;;;12.43;2.45;;;15.20;51.20;;;;;;5067885;28;20279;-78
2021/04/22 11:57:16;;;;;;;12.07;1.90;;;15.00;52.10;;;;;;5070287;28;20644;-76
2021/04/22 11:59:42;;;;;;;12.65;2.22;;;14.90;52.50;;;;;;5076103;28;20701;-76
2021/04/22 12:02:14;;;;;;;10.73;1.90;;;14.80;52.60;;;;;;5079643;28;20668;-76
2021/04/22 12:04:43;;;;;;;10.23;2.85;;;14.80;52.40;;;;;;5073331;28;20207;-77
2021/04/22 12:07:12;;;;;;;8.10;2.30;;;14.70;52.30;;;;;;5074149;28;20217;-76
2021/04/22 12:09:40;;;;;;;9.82;2.25;;;14.70;52.10;;;;;;5069839;28;20201;-76
2021/04/22 12:12:13;;;;;;;13.68;2.22;;;14.70;51.90;;;;;;5071688;28;20201;-75
2021/04/22 12:14:40;;;;;;;8.90;1.98;;;14.70;51.60;;;;;;5069885;28;20202;-76
2021/04/22 12:17:07;;;;;;;9.27;2.20;;;14.80;51.60;;;;;;5076379;28;20269;-75
2021/04/22 12:19:34;;;;;;;12.93;2.00;;;14.80;51.20;;;;;;5069706;28;20212;-76
2021/04/22 12:22:03;;;;;;;8.05;1.75;;;14.80;51.10;;;;;;5074659;28;20215;-76
2021/04/22 12:24:30;;;;;;;13.27;2.30;;;14.90;50.90;;;;;;5077333;28;20213;-75
2021/04/22 12:26:57;;;;;;;10.20;2.08;;;15.10;50.70;;;;;;5074090;28;20339;-74
2021/04/22 12:29:24;;;;;;;6.63;1.90;;;15.30;50.70;;;;;;5074326;28;20190;-75
2021/04/22 12:31:57;;;;;;;8.82;1.70;;;15.40;50.40;;;;;;5073524;28;20865;-75
2021/04/22 12:34:28;;;;;;;9.30;1.90;;;15.60;50.30;;;;;;5071716;28;20198;-75
2021/04/22 12:37:00;;;;;;;11.52;2.15;;;15.70;50.10;;;;;;5067302;28;20243;-76
2021/04/22 12:39:31;;;;;;;12.60;2.17;;;15.70;50.00;;;;;;5082859;28;20201;-73
2021/04/22 12:42:11;;;;;;;11.20;2.15;;;15.90;49.80;;;;;;5072590;28;20424;-75
2021/04/22 12:44:40;;;;;;;10.65;2.25;;;16.30;47.90;;;;;;5070219;28;20422;-75